BIENTÔT MET'MAP
version 2.0 !

Prévue avant fin octobre,
la nouvelle version sera
plus belle, plus complète
et hébergée sur un serveur
3 fois plus puissant...
et toujours gratuite !


Pas compatible ?
Essayez la version Mobile !

SE CONNECTER : | S'inscrire | Disclaimer | Découvrir Orbifly |
Code OACI :

TAF - LFPT Pontoise - 25 Feb 2020 16:33 UTC
Data Sources :     NOAA   


- Altitude de l'aérodrome : 325 ft
- Code IATA : POX
- Pas de NOTAMs connus.


LFPT - Pontoise

Dernier METAR connu : 2020/02/25 15:00 LFPT 251500Z AUTO 26014KT 230V290 9999 FEW042/// ///CB 07/03 Q1003
PAS DE TAF
ATIS : +33 1 30 30 52 08


MET'MAP, la Météo Aéronautique d'un coup d'oeil ! - Copyright ORBIFLY Décembre 2007

Développement & Programmation : Alexandra Zaïnal
Co-Développement : Marc-Olivier Méhu
Soutien technique & logistique : Manuel Goepfert
Conception & Financement : Baudouin d'Aumeries